Time;durP1;ratioP1;P1;durP2;ratioP2;P2;SDS_P1;SDS_P2;PMS_P1;PMS_P2;Temp;Humidity;BMP_temperature;BMP_pressure;BME280_temperature;BME280_humidity;BME280_pressure;Samples;Min_cycle;Max_cycle;Signal;HPM_P1;HPM_P2
2021/11/27 00:00:44;;;;;;;24.27;12.90;;;;;;;5.24;100.00;99411.84;4987325;28;20072;-63
2021/11/27 00:03:29;;;;;;;25.25;12.65;;;;;;;5.14;100.00;99401.38;4984558;28;20053;-64
2021/11/27 00:06:14;;;;;;;23.17;12.65;;;;;;;5.23;100.00;99402.22;4969280;28;20097;-66
2021/11/27 00:08:58;;;;;;;;;;;;;;;5.26;100.00;99401.34;4985171;28;20057;-63
2021/11/27 00:11:43;;;;;;;18.33;11.35;;;;;;;5.25;100.00;99403.06;4988020;28;19973;-63
2021/11/27 00:14:30;;;;;;;22.98;12.27;;;;;;;5.23;100.00;99403.97;4986834;28;20096;-64
2021/11/27 00:17:15;;;;;;;20.08;11.85;;;;;;;5.22;100.00;99408.34;4960502;28;20070;-65
2021/11/27 00:20:00;;;;;;;;;;;;;;;5.10;100.00;99407.53;4985098;28;20058;-63
2021/11/27 00:22:47;;;;;;;22.40;12.05;;;;;;;5.01;100.00;99405.81;4983199;28;20332;-65
2021/11/27 00:25:32;;;;;;;21.65;11.65;;;;;;;5.03;100.00;99403.19;4987077;28;20057;-67
2021/11/27 00:28:18;;;;;;;23.15;12.10;;;;;;;5.07;100.00;99403.19;4967376;28;20069;-65
2021/11/27 00:31:14;;;;;;;25.20;12.82;;;;;;;4.90;100.00;99392.72;4983987;28;20076;-66
2021/11/27 00:33:58;;;;;;;;;;;;;;;5.07;100.00;99401.41;4984067;28;20061;-64
2021/11/27 00:36:45;;;;;;;21.15;11.50;;;;;;;4.95;100.00;99390.94;4987723;28;19938;-65
2021/11/27 00:39:30;;;;;;;20.40;11.68;;;;;;;5.05;100.00;99391.78;4984423;28;20096;-65
2021/11/27 00:42:15;;;;;;;23.63;11.68;;;;;;;5.22;100.00;99389.09;4986670;28;20414;-64
2021/11/27 00:45:01;;;;;;;23.33;11.77;;;;;;;5.19;100.00;99379.47;4985537;28;20115;-64
2021/11/27 00:47:52;;;;;;;21.60;12.00;;;;;;;5.32;100.00;99380.25;4972680;28;20529;-67
2021/11/27 00:50:42;;;;;;;20.17;11.93;;;;;;;5.29;100.00;99375.91;4989192;28;20261;-63
2021/11/27 00:53:26;;;;;;;21.35;11.55;;;;;;;5.17;100.00;99377.72;4999717;28;20525;-62
2021/11/27 00:56:14;;;;;;;22.48;11.77;;;;;;;5.23;100.00;99369.81;4979758;28;20190;-63
2021/11/27 00:58:59;;;;;;;24.52;12.27;;;;;;;5.28;100.00;99373.28;4981206;28;20108;-64
2021/11/27 01:01:45;;;;;;;23.13;13.52;;;;;;;5.27;100.00;99384.69;4971943;28;20177;-66
2021/11/27 01:04:31;;;;;;;30.25;12.38;;;;;;;5.15;100.00;99376.84;4985413;28;20584;-64
2021/11/27 01:07:17;;;;;;;25.45;13.15;;;;;;;5.12;100.00;99374.22;4986576;28;20151;-63
2021/11/27 01:10:05;;;;;;;20.98;12.50;;;;;;;5.25;100.00;99375.94;4985265;28;20529;-63
2021/11/27 01:12:51;;;;;;;23.08;12.50;;;;;;;5.23;100.00;99370.69;4984413;28;20129;-66
2021/11/27 01:15:37;;;;;;;20.60;12.90;;;;;;;5.04;100.00;99369.03;4986271;28;20057;-62
2021/11/27 01:18:22;;;;;;;24.85;12.63;;;;;;;5.12;100.00;99363.72;4984423;28;20092;-62
2021/11/27 01:21:10;;;;;;;28.27;13.25;;;;;;;4.94;100.00;99351.53;4985609;28;20044;-61
2021/11/27 01:23:59;;;;;;;32.05;14.13;;;;;;;5.01;100.00;99342.75;4987309;28;20101;-62
2021/11/27 01:26:45;;;;;;;24.48;12.60;;;;;;;5.11;100.00;99352.34;4982751;28;20201;-65
2021/11/27 01:29:30;;;;;;;28.55;13.23;;;;;;;5.09;100.00;99354.09;4987321;28;20461;-63
2021/11/27 01:32:16;;;;;;;33.70;14.65;;;;;;;5.14;100.00;99360.19;4984443;28;20041;-62
2021/11/27 01:35:02;;;;;;;28.92;14.35;;;;;;;5.10;100.00;99374.22;4984647;28;20049;-61
2021/11/27 01:37:48;;;;;;;30.27;14.07;;;;;;;5.09;100.00;99380.38;4986144;28;20057;-62
2021/11/27 01:40:36;;;;;;;33.45;14.10;;;;;;;5.05;100.00;99386.53;4981249;28;20057;-65
2021/11/27 01:43:22;;;;;;;30.27;13.70;;;;;;;4.91;100.00;99389.19;4980836;28;20403;-63
2021/11/27 01:46:07;;;;;;;25.92;13.48;;;;;;;5.07;100.00;99395.28;4984070;28;20083;-62
2021/11/27 01:48:53;;;;;;;27.13;14.05;;;;;;;4.97;100.00;99401.44;4998994;28;20296;-63
2021/11/27 01:51:39;;;;;;;27.52;13.25;;;;;;;4.99;100.00;99400.56;4985918;28;20212;-67
2021/11/27 01:54:25;;;;;;;29.02;14.98;;;;;;;4.87;100.00;99395.34;4980936;28;20132;-64
2021/11/27 01:57:09;;;;;;;25.77;13.48;;;;;;;4.90;100.00;99395.34;4983532;28;20077;-64
2021/11/27 01:59:55;;;;;;;27.85;13.82;;;;;;;5.09;100.00;99385.63;4983430;28;20715;-66
2021/11/27 02:02:39;;;;;;;27.40;14.05;;;;;;;5.08;100.00;99376.00;4987260;28;20053;-62
2021/11/27 02:05:25;;;;;;;26.65;12.70;;;;;;;5.27;100.00;99375.03;4985163;28;20057;-63
2021/11/27 02:08:11;;;;;;;25.52;13.02;;;;;;;5.11;100.00;99375.13;4970545;28;20085;-64
2021/11/27 02:10:56;;;;;;;;;;;;;;;5.12;100.00;99368.97;4985512;28;20050;-65
2021/11/27 02:13:42;;;;;;;25.95;13.50;;;;;;;5.26;100.00;99373.28;4997832;28;20278;-67
2021/11/27 02:16:30;;;;;;;23.23;12.60;;;;;;;5.08;100.00;99376.00;4985512;28;20107;-64
2021/11/27 02:19:16;;;;;;;25.27;13.65;;;;;;;5.14;100.00;99385.63;4980534;28;20057;-64
2021/11/27 02:22:01;;;;;;;31.48;13.02;;;;;;;5.15;100.00;99392.63;4986627;28;20509;-62
2021/11/27 02:24:55;;;;;;;26.10;12.32;;;;;;;5.15;100.00;99398.75;4970728;28;20070;-64
2021/11/27 02:27:43;;;;;;;27.60;12.32;;;;;;;5.11;100.00;99407.53;4962979;28;20081;-63
2021/11/27 02:30:28;;;;;;;24.80;12.48;;;;;;;5.07;100.00;99407.53;4978876;28;20073;-63
2021/11/27 02:33:13;;;;;;;24.23;12.60;;;;;;;5.14;100.00;99396.13;4983647;28;20057;-62
2021/11/27 02:35:59;;;;;;;27.08;13.13;;;;;;;5.19;100.00;99396.97;4970673;28;20141;-65
2021/11/27 02:38:44;;;;;;;22.08;12.57;;;;;;;5.12;100.00;99388.25;4983707;28;20041;-66
2021/11/27 02:41:30;;;;;;;25.83;12.95;;;;;;;4.95;100.00;99383.06;4986698;28;20054;-64
2021/11/27 02:44:15;;;;;;;25.38;13.57;;;;;;;5.00;100.00;99368.13;4965355;28;20072;-64
2021/11/27 02:47:02;;;;;;;21.02;12.25;;;;;;;5.14;100.00;99372.47;4983645;28;20092;-62
2021/11/27 02:49:48;;;;;;;23.50;12.88;;;;;;;5.17;100.00;99375.97;4994812;28;20153;-66
2021/11/27 02:52:35;;;;;;;20.23;11.77;;;;;;;5.04;100.00;99383.00;4992415;28;20122;-62
2021/11/27 02:55:20;;;;;;;24.65;11.73;;;;;;;5.04;100.00;99384.78;4983970;28;20073;-63
2021/11/27 02:58:04;;;;;;;21.70;12.35;;;;;;;5.00;100.00;99381.28;4987017;28;20073;-63
2021/11/27 03:00:52;;;;;;;21.63;12.30;;;;;;;5.00;100.00;99383.06;4986668;28;20085;-64
2021/11/27 03:03:37;;;;;;;24.52;12.93;;;;;;;5.17;100.00;99391.72;4974533;28;20116;-63
2021/11/27 03:06:22;;;;;;;28.48;12.88;;;;;;;5.13;100.00;99386.50;4987862;28;20056;-63
2021/11/27 03:09:08;;;;;;;27.25;12.95;;;;;;;5.27;100.00;99388.19;4988274;28;20257;-61
2021/11/27 03:11:57;;;;;;;26.00;14.02;;;;;;;5.27;100.00;99387.31;4976240;28;20173;-62
2021/11/27 03:14:42;;;;;;;22.48;12.70;;;;;;;5.18;100.00;99385.59;4987269;28;20057;-67
2021/11/27 03:17:27;;;;;;;23.60;12.65;;;;;;;5.20;100.00;99373.31;4989056;28;20077;-62
2021/11/27 03:20:14;;;;;;;27.83;12.80;;;;;;;5.37;100.00;99374.09;4987759;28;20092;-64
2021/11/27 03:22:59;;;;;;;22.80;12.38;;;;;;;5.44;100.00;99370.56;4987273;28;20053;-63
2021/11/27 03:25:45;;;;;;;25.45;13.38;;;;;;;5.42;100.00;99372.31;4986729;28;20749;-62
2021/11/27 03:28:30;;;;;;;22.50;12.45;;;;;;;5.38;100.00;99377.63;4986112;28;20061;-64
2021/11/27 03:31:14;;;;;;;27.20;14.32;;;;;;;5.47;100.00;99381.06;4987707;28;20061;-62
2021/11/27 03:34:00;;;;;;;28.00;13.15;;;;;;;5.47;100.00;99380.19;4972597;28;20105;-66
2021/11/27 03:36:46;;;;;;;24.83;14.05;;;;;;;5.51;100.00;99377.53;4978031;28;20053;-66
2021/11/27 03:39:30;;;;;;;26.13;13.45;;;;;;;5.47;100.00;99381.06;4979012;28;20073;-64
2021/11/27 03:42:16;;;;;;;25.63;13.90;;;;;;;5.41;100.00;99367.09;4971825;28;20721;-67
2021/11/27 03:45:05;;;;;;;26.40;13.80;;;;;;;5.55;100.00;99379.25;4971837;28;20052;-65
2021/11/27 03:48:07;;;;;;;25.55;14.18;;;;;;;5.66;100.00;99374.78;4998128;28;20257;-67
2021/11/27 03:51:16;;;;;;;24.67;14.13;;;;;;;5.49;100.00;99375.78;4963701;28;20427;-66
2021/11/27 03:54:02;;;;;;;23.42;13.93;;;;;;;5.61;100.00;99380.97;4951257;28;20201;-66
2021/11/27 03:56:48;;;;;;;26.95;15.05;;;;;;;5.59;100.00;99388.00;4955500;28;20427;-65
2021/11/27 03:59:32;;;;;;;28.05;14.40;;;;;;;5.54;100.00;99395.91;4964655;28;20049;-67
2021/11/27 04:02:17;;;;;;;24.48;15.23;;;;;;;5.62;100.00;99387.97;4937069;28;20053;-64
2021/11/27 04:05:03;;;;;;;31.55;14.70;;;;;;;5.57;100.00;99390.63;4962089;28;20115;-66
2021/11/27 04:07:55;;;;;;;33.35;16.42;;;;;;;5.39;100.00;99379.34;4963036;28;20186;-64
2021/11/27 04:10:40;;;;;;;26.50;15.73;;;;;;;5.52;100.00;99383.66;4941119;28;20100;-65
2021/11/27 04:13:27;;;;;;;27.75;14.57;;;;;;;5.45;100.00;99382.81;4963444;28;20053;-67
2021/11/27 04:16:14;;;;;;;31.40;15.18;;;;;;;5.62;100.00;99383.56;4950911;28;20105;-67
2021/11/27 04:19:00;;;;;;;27.38;14.95;;;;;;;5.75;100.00;99376.47;4948522;28;20049;-65
2021/11/27 04:21:45;;;;;;;32.70;15.05;;;;;;;5.83;100.00;99379.97;4964045;28;20117;-64
2021/11/27 04:24:29;;;;;;;;;;;;;;;5.86;100.00;99379.94;4949436;28;20097;-66
2021/11/27 04:27:14;;;;;;;30.63;15.57;;;;;;;5.58;100.00;99381.84;4949906;28;20348;-66
2021/11/27 04:29:59;;;;;;;30.33;17.02;;;;;;;5.56;100.00;99374.84;4981938;28;20057;-67
2021/11/27 04:32:45;;;;;;;29.08;16.17;;;;;;;5.43;100.00;99379.34;4982756;28;20165;-68
2021/11/27 04:35:54;;;;;;;28.95;14.63;;;;;;;5.70;100.00;99384.38;4985400;28;20148;-70
2021/11/27 04:38:47;;;;;;;27.08;14.98;;;;;;;5.66;100.00;99395.81;4986977;28;20092;-65
2021/11/27 04:41:32;;;;;;;29.10;16.10;;;;;;;5.72;100.00;99387.00;4985134;28;20074;-67
2021/11/27 04:44:17;;;;;;;31.00;15.68;;;;;;;5.68;100.00;99390.56;4966030;28;20050;-66
2021/11/27 04:47:02;;;;;;;32.15;17.30;;;;;;;5.77;100.00;99393.13;4980576;28;20776;-63
2021/11/27 04:49:47;;;;;;;;;;;;;;;5.85;100.00;99386.94;5000706;28;20054;-64
2021/11/27 04:52:31;;;;;;;28.40;15.38;;;;;;;5.80;100.00;99383.47;4988650;28;19971;-64
2021/11/27 04:55:17;;;;;;;32.17;16.98;;;;;;;5.84;100.00;99387.84;4982910;28;20057;-72
2021/11/27 04:58:14;;;;;;;27.33;16.02;;;;;;;5.78;100.00;99401.03;4974027;28;20204;-80
2021/11/27 05:01:00;;;;;;;26.08;15.55;;;;;;;5.89;100.00;99400.97;4986470;28;20474;-71
2021/11/27 05:03:58;;;;;;;30.75;16.60;;;;;;;5.79;100.00;99405.41;4973548;28;20056;-71
2021/11/27 05:06:44;;;;;;;32.03;16.10;;;;;;;5.69;100.00;99398.44;4986513;28;20052;-68
2021/11/27 05:09:28;;;;;;;30.10;15.68;;;;;;;5.56;100.00;99391.50;4984011;28;20049;-66
2021/11/27 05:12:13;;;;;;;32.90;16.80;;;;;;;5.53;100.00;99394.16;4986056;28;20128;-69
2021/11/27 05:14:58;;;;;;;27.98;14.48;;;;;;;5.59;100.00;99395.88;4986598;28;20060;-68
2021/11/27 05:17:43;;;;;;;;;;;;;;;5.64;100.00;99396.72;4984852;28;20383;-75
2021/11/27 05:20:56;;;;;;;26.75;14.18;;;;;;;5.62;100.00;99395.88;4920209;29;20322;-73
2021/11/27 05:23:42;;;;;;;29.77;14.88;;;;;;;5.57;100.00;99392.41;4922801;29;20107;-68
2021/11/27 05:26:49;;;;;;;26.10;13.70;;;;;;;5.55;100.00;99397.66;4916613;28;20117;-62
2021/11/27 05:29:49;;;;;;;27.25;14.90;;;;;;;5.44;100.00;99401.22;4940018;29;20129;-65
2021/11/27 05:32:54;;;;;;;25.08;14.63;;;;;;;5.51;100.00;99393.31;4923985;29;20051;-69
2021/11/27 05:35:50;;;;;;;26.55;13.70;;;;;;;5.64;100.00;99399.34;4924998;29;20051;-73
2021/11/27 05:38:35;;;;;;;22.98;13.02;;;;;;;5.66;100.00;99397.59;4922825;29;20055;-70
2021/11/27 05:41:20;;;;;;;28.60;14.18;;;;;;;5.62;100.00;99401.97;4909962;29;20051;-67
2021/11/27 05:44:05;;;;;;;23.75;13.05;;;;;;;5.46;100.00;99392.44;4925436;29;20477;-64
2021/11/27 05:46:52;;;;;;;29.40;13.18;;;;;;;5.46;100.00;99397.69;4898558;29;20133;-65
2021/11/27 05:49:37;;;;;;;26.73;12.98;;;;;;;5.43;100.00;99400.38;4926775;29;20087;-67
2021/11/27 05:52:30;;;;;;;25.25;13.40;;;;;;;5.56;100.00;99388.88;4933318;29;20551;-67
2021/11/27 05:55:15;;;;;;;29.80;14.48;;;;;;;5.75;100.00;99392.25;4922999;29;20130;-65
2021/11/27 05:57:59;;;;;;;24.42;12.85;;;;;;;5.54;100.00;99398.53;4973618;28;20085;-66
2021/11/27 06:00:45;;;;;;;24.30;13.52;;;;;;;5.47;100.00;99395.94;4985839;28;20061;-67
2021/11/27 06:03:30;;;;;;;30.95;13.35;;;;;;;5.46;100.00;99395.06;4971824;28;20061;-64
2021/11/27 06:06:15;;;;;;;26.52;13.45;;;;;;;5.49;100.00;99400.31;4984334;28;20092;-68
2021/11/27 06:09:02;;;;;;;24.40;12.85;;;;;;;5.41;100.00;99402.13;4966564;28;20076;-64
2021/11/27 06:11:47;;;;;;;28.02;12.55;;;;;;;5.47;100.00;99393.31;4969432;28;20057;-62
2021/11/27 06:14:34;;;;;;;23.15;13.48;;;;;;;5.55;100.00;99392.41;4984241;28;20085;-67
2021/11/27 06:17:18;;;;;;;27.73;12.43;;;;;;;5.26;100.00;99402.19;4969895;28;20184;-64
2021/11/27 06:20:06;;;;;;;26.05;13.10;;;;;;;5.40;100.00;99410.88;4981680;28;20422;-67
2021/11/27 06:22:51;;;;;;;27.08;12.95;;;;;;;5.42;100.00;99400.38;4983262;28;20050;-69
2021/11/27 06:25:36;;;;;;;27.67;12.82;;;;;;;5.47;100.00;99388.94;4981622;28;20120;-68
2021/11/27 06:28:21;;;;;;;23.00;11.50;;;;;;;5.59;100.00;99394.13;4988393;28;20120;-67
2021/11/27 06:31:07;;;;;;;24.45;11.75;;;;;;;5.51;100.00;99398.56;4983775;28;20045;-63
2021/11/27 06:33:52;;;;;;;22.63;11.27;;;;;;;5.45;100.00;99395.97;4988048;28;20944;-63
2021/11/27 06:36:36;;;;;;;21.75;10.77;;;;;;;5.41;100.00;99398.63;4980361;28;20517;-63
2021/11/27 06:39:22;;;;;;;23.40;11.13;;;;;;;5.27;100.00;99382.94;4991508;28;20108;-63
2021/11/27 06:42:09;;;;;;;21.95;11.10;;;;;;;5.26;100.00;99375.91;4997685;28;20049;-71
2021/11/27 06:45:05;;;;;;;20.83;10.85;;;;;;;5.11;100.00;99372.50;4986692;28;20053;-66
2021/11/27 06:48:09;;;;;;;25.20;11.70;;;;;;;4.85;100.00;99376.13;4957614;28;20104;-67
2021/11/27 06:50:54;;;;;;;26.95;11.30;;;;;;;4.82;100.00;99367.34;4982008;28;20045;-66
2021/11/27 06:53:40;;;;;;;22.92;12.10;;;;;;;4.76;100.00;99367.38;4981232;28;20057;-75
2021/11/27 06:56:25;;;;;;;31.20;12.40;;;;;;;4.89;100.00;99369.09;4990429;28;20062;-65
2021/11/27 06:59:09;;;;;;;30.70;13.27;;;;;;;4.92;100.00;99363.81;4972688;28;20586;-68
2021/11/27 07:02:29;;;;;;;26.45;12.73;;;;;;;5.02;100.00;99356.78;4972089;28;20053;-65
2021/11/27 07:05:34;;;;;;;22.95;12.23;;;;;;;4.93;100.00;99355.06;4927178;29;20079;-67
2021/11/27 07:08:24;;;;;;;21.55;11.75;;;;;;;4.83;100.00;99342.84;4900875;29;20114;-59
2021/11/27 07:11:13;;;;;;;27.98;13.73;;;;;;;4.75;100.00;99366.50;4923033;29;20047;-64
2021/11/27 07:14:01;;;;;;;23.30;12.35;;;;;;;4.80;100.00;99350.75;4924154;29;20523;-65
2021/11/27 07:16:46;;;;;;;29.27;14.57;;;;;;;4.73;100.00;99344.66;4924852;29;20098;-64
2021/11/27 07:19:32;;;;;;;27.02;13.73;;;;;;;4.79;100.00;99355.09;4926309;29;20167;-68
2021/11/27 07:22:17;;;;;;;25.63;12.15;;;;;;;4.66;100.00;99344.66;4907045;29;20063;-66
2021/11/27 07:25:03;;;;;;;26.50;14.20;;;;;;;4.79;100.00;99349.00;4908113;29;20092;-65
2021/11/27 07:28:05;;;;;;;28.63;13.65;;;;;;;4.83;100.00;99351.59;4910917;29;20175;-70
2021/11/27 07:30:50;;;;;;;32.78;14.88;;;;;;;4.82;100.00;99346.34;4914240;29;20083;-65
2021/11/27 07:33:36;;;;;;;30.00;14.40;;;;;;;4.48;100.00;99339.47;4909802;29;20086;-64
2021/11/27 07:36:23;;;;;;;29.05;14.45;;;;;;;4.39;100.00;99334.22;4945861;28;20608;-69
2021/11/27 07:39:11;;;;;;;32.90;15.38;;;;;;;4.64;100.00;99335.91;4948104;28;20074;-66
2021/11/27 07:41:56;;;;;;;;;;;;;;;4.65;100.00;99335.03;4966423;28;20050;-71
2021/11/27 07:44:58;;;;;;;29.13;13.95;;;;;;;4.73;100.00;99347.28;4998598;28;19924;-64
2021/11/27 07:48:09;;;;;;;28.33;14.50;;;;;;;4.81;100.00;99327.09;4972873;28;20088;-62
2021/11/27 07:51:12;;;;;;;31.50;14.75;;;;;;;4.74;100.00;99317.50;4975623;28;20113;-63
2021/11/27 07:54:01;;;;;;;30.33;13.93;;;;;;;4.60;100.00;99311.41;4939383;28;20056;-68
2021/11/27 07:56:47;;;;;;;31.20;14.60;;;;;;;4.69;100.00;99316.66;4983866;28;20427;-64
2021/11/27 07:59:36;;;;;;;34.40;17.02;;;;;;;4.78;100.00;99299.97;4984512;28;20089;-62
2021/11/27 08:02:21;;;;;;;39.78;16.73;;;;;;;4.75;100.00;99306.09;4981597;28;20191;-67
2021/11/27 08:05:06;;;;;;;29.13;14.27;;;;;;;4.60;100.00;99279.06;4985441;28;20049;-65
2021/11/27 08:07:51;;;;;;;34.03;15.85;;;;;;;4.69;100.00;99271.13;4960329;28;20608;-63
2021/11/27 08:10:36;;;;;;;35.03;15.93;;;;;;;4.67;100.00;99255.38;4982353;28;20053;-64
2021/11/27 08:13:20;;;;;;;33.55;15.27;;;;;;;4.71;100.00;99264.13;4980621;28;20065;-63
2021/11/27 08:16:05;;;;;;;31.52;15.70;;;;;;;4.77;100.00;99253.56;4967159;28;20077;-64
2021/11/27 08:18:49;;;;;;;31.27;15.38;;;;;;;4.70;100.00;99252.75;4983966;28;20072;-64
2021/11/27 08:21:35;;;;;;;32.75;15.07;;;;;;;4.61;100.00;99241.41;4980105;28;20128;-71
2021/11/27 08:24:20;;;;;;;34.63;16.60;;;;;;;4.59;100.00;99236.16;4980743;28;20061;-68
2021/11/27 08:27:06;;;;;;;33.17;17.08;;;;;;;4.80;100.00;99236.03;4981172;28;20090;-63
2021/11/27 08:29:50;;;;;;;36.65;16.45;;;;;;;4.69;100.00;99248.38;4981110;28;20088;-64
2021/11/27 08:32:36;;;;;;;32.30;17.58;;;;;;;4.72;100.00;99244.88;4985789;28;20065;-63
2021/11/27 08:35:21;;;;;;;38.03;18.17;;;;;;;4.75;100.00;99256.22;4984858;28;20045;-63
2021/11/27 08:38:06;;;;;;;31.40;15.40;;;;;;;4.70;100.00;99242.25;4981986;28;20096;-66
2021/11/27 08:40:51;;;;;;;30.45;15.60;;;;;;;4.76;100.00;99242.19;4982947;28;20057;-64
2021/11/27 08:43:38;;;;;;;31.42;16.00;;;;;;;4.63;100.00;99239.66;4985306;28;20055;-62
2021/11/27 08:46:24;;;;;;;22.65;11.68;;;;;;;4.47;100.00;99225.72;4984122;28;20108;-67
2021/11/27 08:49:10;;;;;;;29.23;14.23;;;;;;;4.56;100.00;99220.41;4985754;28;20496;-62
2021/11/27 08:51:56;;;;;;;31.45;15.15;;;;;;;4.73;100.00;99221.22;4997873;28;20534;-64
2021/11/27 08:54:40;;;;;;;35.95;17.00;;;;;;;4.62;100.00;99248.41;5000018;28;20057;-65
2021/11/27 08:57:25;;;;;;;;;;;;;;;4.64;100.00;99218.63;4946200;28;20467;-62
2021/11/27 09:00:11;;;;;;;30.83;15.52;;;;;;;4.58;100.00;99226.56;4937701;28;19934;-61
2021/11/27 09:02:58;;;;;;;30.73;15.68;;;;;;;4.67;100.00;99210.75;4948506;29;20535;-57
2021/11/27 09:05:42;;;;;;;34.35;16.52;;;;;;;4.68;100.00;99211.63;4946251;28;20059;-62
2021/11/27 09:08:29;;;;;;;29.20;14.70;;;;;;;4.57;100.00;99197.69;4957207;28;20062;-62
2021/11/27 09:11:17;;;;;;;31.08;14.57;;;;;;;4.60;100.00;99211.66;4945524;29;20085;-67
2021/11/27 09:14:04;;;;;;;28.63;14.30;;;;;;;4.53;100.00;99201.19;4942870;29;20073;-64
2021/11/27 09:16:52;;;;;;;26.20;13.57;;;;;;;4.67;100.00;99195.00;4935180;29;20057;-59
2021/11/27 09:19:37;;;;;;;29.08;14.18;;;;;;;4.57;100.00;99208.19;4946722;29;20863;-68
2021/11/27 09:22:22;;;;;;;26.88;14.38;;;;;;;4.66;100.00;99197.63;4942463;29;20411;-61
2021/11/27 09:25:08;;;;;;;25.35;12.80;;;;;;;4.62;100.00;99188.91;4944741;28;20082;-67
2021/11/27 09:27:53;;;;;;;26.73;13.48;;;;;;;4.49;100.00;99173.22;4932324;28;20074;-59
2021/11/27 09:30:38;;;;;;;25.42;12.38;;;;;;;4.45;100.00;99172.38;4942318;29;20053;-60
2021/11/27 09:33:23;;;;;;;30.40;14.45;;;;;;;4.63;100.00;99167.00;4926770;29;20099;-63
2021/11/27 09:36:10;;;;;;;26.30;13.95;;;;;;;4.69;100.00;99155.59;4959890;28;20070;-62
2021/11/27 09:38:56;;;;;;;32.83;13.77;;;;;;;4.62;100.00;99146.91;4944458;28;20046;-62
2021/11/27 09:41:46;;;;;;;21.50;11.75;;;;;;;4.77;100.00;99141.56;4944971;28;20422;-70
2021/11/27 09:44:34;;;;;;;23.20;11.65;;;;;;;4.69;100.00;99135.47;4939729;29;20070;-58
2021/11/27 09:47:19;;;;;;;23.65;10.98;;;;;;;4.80;100.00;99127.53;4938715;29;20058;-60
2021/11/27 09:50:08;;;;;;;22.48;11.20;;;;;;;4.82;100.00;99131.88;4944887;29;20086;-65
2021/11/27 09:52:53;;;;;;;22.20;10.90;;;;;;;4.73;100.00;99125.81;4941338;29;20058;-62
2021/11/27 09:55:40;;;;;;;21.13;10.70;;;;;;;4.68;100.00;99133.72;4950620;28;20104;-68
2021/11/27 09:58:25;;;;;;;28.85;11.88;;;;;;;4.65;100.00;99119.75;4983527;28;20053;-65
2021/11/27 10:01:13;;;;;;;22.50;10.85;;;;;;;4.61;100.00;99123.28;4977967;28;20061;-61
2021/11/27 10:04:08;;;;;;;24.13;11.45;;;;;;;4.56;100.00;99101.44;4984233;28;20092;-63
2021/11/27 10:06:57;;;;;;;23.05;11.15;;;;;;;4.52;100.00;99094.47;4982062;28;20049;-65
2021/11/27 10:09:45;;;;;;;20.75;11.65;;;;;;;4.32;100.00;99070.97;4976464;28;20053;-63
2021/11/27 10:12:29;;;;;;;24.55;12.10;;;;;;;4.25;100.00;99090.28;4983018;28;20427;-58
2021/11/27 10:15:14;;;;;;;25.33;12.55;;;;;;;4.03;100.00;99075.53;4981025;28;20827;-66
2021/11/27 10:18:17;;;;;;;25.20;12.93;;;;;;;4.15;100.00;99083.31;4998474;28;20153;-64
2021/11/27 10:21:20;;;;;;;26.55;12.68;;;;;;;4.01;100.00;99093.03;4983980;28;20610;-68
2021/11/27 10:24:18;;;;;;;29.27;14.40;;;;;;;4.16;100.00;99085.06;4979953;28;20188;-64
2021/11/27 10:27:16;;;;;;;27.00;12.60;;;;;;;4.10;100.00;99065.88;4994224;28;20162;-63
2021/11/27 10:30:09;;;;;;;26.83;13.80;;;;;;;4.08;100.00;99036.16;4981494;28;20053;-65
2021/11/27 10:32:55;;;;;;;33.00;15.00;;;;;;;4.01;100.00;99063.31;4983503;28;20057;-64
2021/11/27 10:36:10;;;;;;;30.77;14.95;;;;;;;4.03;100.00;99059.78;4996030;28;20084;-63
2021/11/27 10:39:05;;;;;;;34.20;15.43;;;;;;;4.01;100.00;99066.81;4918508;28;20147;-71
2021/11/27 10:42:05;;;;;;;36.45;16.48;;;;;;;3.92;100.00;99045.84;4919991;29;20062;-64
2021/11/27 10:44:52;;;;;;;36.20;16.13;;;;;;;4.00;100.00;99027.47;4928090;28;20055;-68
2021/11/27 10:47:37;;;;;;;41.10;17.77;;;;;;;3.75;100.00;99052.94;4920147;29;20054;-66
2021/11/27 10:50:24;;;;;;;42.17;18.80;;;;;;;3.92;100.00;99048.47;4930227;28;20422;-63
2021/11/27 10:53:13;;;;;;;37.85;18.05;;;;;;;3.99;100.00;99055.44;4915422;29;20063;-63
2021/11/27 10:56:10;;;;;;;36.75;18.23;;;;;;;3.88;100.00;99035.41;4930742;29;20094;-64
2021/11/27 10:59:00;;;;;;;40.78;17.80;;;;;;;3.93;100.00;99038.88;4930034;29;20155;-66
2021/11/27 11:02:01;;;;;;;38.70;18.00;;;;;;;4.00;100.00;99040.59;4919509;29;20099;-64
2021/11/27 11:05:19;;;;;;;35.25;15.88;;;;;;;3.83;100.00;99047.66;4919295;29;20062;-63
2021/11/27 11:08:07;;;;;;;38.22;16.90;;;;;;;3.77;100.00;99048.53;4915692;29;20089;-65
2021/11/27 11:10:52;;;;;;;33.50;16.08;;;;;;;3.78;100.00;99052.06;4931852;29;20138;-65
2021/11/27 11:13:37;;;;;;;32.10;15.88;;;;;;;3.64;100.00;99025.91;4932494;28;20051;-70
2021/11/27 11:16:28;;;;;;;33.50;14.70;;;;;;;3.65;100.00;99019.75;4980887;28;20454;-65
2021/11/27 11:19:16;;;;;;;31.77;14.60;;;;;;;3.48;100.00;99012.88;4983284;28;20133;-63
2021/11/27 11:22:17;;;;;;;35.50;15.80;;;;;;;3.55;100.00;99020.69;4987228;28;20184;-67
2021/11/27 11:25:08;;;;;;;29.77;14.88;;;;;;;3.57;100.00;99010.22;4985403;28;20135;-68
2021/11/27 11:27:53;;;;;;;34.95;15.60;;;;;;;3.54;100.00;98984.03;4986409;28;20057;-64
2021/11/27 11:30:40;;;;;;;35.65;16.38;;;;;;;3.49;100.00;98991.88;4990241;28;20056;-65
2021/11/27 11:33:25;;;;;;;32.20;15.82;;;;;;;3.59;100.00;98974.38;4988448;28;20052;-65
2021/11/27 11:36:12;;;;;;;37.50;16.52;;;;;;;3.35;100.00;98967.53;4985832;28;20050;-70
2021/11/27 11:39:00;;;;;;;33.75;16.60;;;;;;;3.39;100.00;98969.25;4971838;28;20049;-68
2021/11/27 11:41:47;;;;;;;31.45;16.20;;;;;;;3.47;100.00;98985.81;4983816;28;20081;-65
2021/11/27 11:44:34;;;;;;;33.42;15.63;;;;;;;3.48;100.00;98991.94;4985376;28;20116;-64
2021/11/27 11:47:22;;;;;;;33.65;15.35;;;;;;;3.45;100.00;98984.91;4986699;28;20053;-63
2021/11/27 11:50:12;;;;;;;31.35;15.15;;;;;;;3.46;100.00;98978.81;4984800;28;20053;-63
2021/11/27 11:53:03;;;;;;;31.67;15.38;;;;;;;3.38;100.00;98979.72;4984858;28;20081;-63
2021/11/27 11:55:57;;;;;;;32.65;15.43;;;;;;;3.41;100.00;98969.25;4975169;28;20061;-65
2021/11/27 11:58:44;;;;;;;32.35;15.65;;;;;;;3.39;100.00;98940.44;4985584;28;20049;-64
2021/11/27 12:01:29;;;;;;;32.63;14.10;;;;;;;3.33;100.00;98966.63;4987264;28;20148;-65
2021/11/27 12:04:22;;;;;;;30.73;15.00;;;;;;;3.25;100.00;98944.84;4986331;28;20580;-69
2021/11/27 12:07:30;;;;;;;29.05;15.02;;;;;;;3.28;100.00;98949.22;4983950;28;20068;-67
2021/11/27 12:10:26;;;;;;;34.10;14.32;;;;;;;3.40;100.00;98949.16;4989588;28;20053;-70
2021/11/27 12:13:10;;;;;;;36.92;14.57;;;;;;;3.37;100.00;98952.66;4976669;28;20549;-65
2021/11/27 12:16:10;;;;;;;30.92;14.52;;;;;;;3.44;100.00;98945.66;4985583;28;20057;-63
2021/11/27 12:19:07;;;;;;;31.88;14.80;;;;;;;3.52;100.00;98949.97;4972909;28;20682;-68
2021/11/27 12:22:36;;;;;;;34.25;14.35;;;;;;;3.48;100.00;98937.75;4986087;28;20501;-65
2021/11/27 12:25:29;;;;;;;37.05;14.90;;;;;;;3.38;100.00;98933.44;4973845;28;20162;-67
2021/11/27 12:28:15;;;;;;;33.28;14.82;;;;;;;3.49;100.00;98930.78;4984524;28;20112;-64
2021/11/27 12:31:10;;;;;;;28.20;13.88;;;;;;;3.54;100.00;98927.25;4984815;28;21009;-65
2021/11/27 12:33:55;;;;;;;38.88;14.15;;;;;;;3.46;100.00;98915.94;4984774;28;20108;-66
2021/11/27 12:36:43;;;;;;;29.40;14.40;;;;;;;3.45;100.00;98911.56;4986302;28;20124;-63
2021/11/27 12:39:33;;;;;;;30.58;14.25;;;;;;;3.60;100.00;98914.09;4957608;28;20053;-66
2021/11/27 12:42:20;;;;;;;33.20;14.57;;;;;;;3.53;100.00;98903.66;4980239;28;20061;-59
2021/11/27 12:45:08;;;;;;;28.65;13.52;;;;;;;3.57;100.00;98908.00;4985944;28;20089;-65
2021/11/27 12:47:54;;;;;;;26.92;13.38;;;;;;;3.66;100.00;98902.69;4969167;28;20097;-63
2021/11/27 12:50:38;;;;;;;31.55;13.32;;;;;;;3.75;100.00;98895.66;4983224;28;20529;-66
2021/11/27 12:53:23;;;;;;;26.52;13.73;;;;;;;3.80;100.00;98885.16;4980796;28;20057;-66
2021/11/27 12:56:07;;;;;;;29.13;13.82;;;;;;;3.87;100.00;98886.81;4982308;28;20104;-68